Fentress, Virginia
Current Conditions -  °F | °C
As of 1:55 PM on Thursday 23 Oct 2014 (Local Time) from KCPK Reporting Station
Broken Clouds Broken Clouds  
Wind Chill: 66°   Ceiling: 4100
Heat Index: 66°   Visibility: 10mi
Dew Point: 48°   Wind: 14mph
Humidity: 52%   Direction: 310°NW
Pressure: 29.87"   Gusts: 21mph
Location:  36.6227°N, 76.2654°W
Report Text: KCPK 231755Z AUTO 31012G18KT 10SM BKN041 19/09 A2987 RMK AO2
Loading
Personal Weather Stations






























Interactive Weather Map
Tropical Storm Tracking
New forecast layout! Learn more

10-Day Weather Forecast

Advertisements
Track Severe Weather on mobile